IGO450 VNKT-VIDP
Flight info
| Callsign | IGO450 |
|---|---|
| Flight time | 1h 13m |
| Altitude | 40000 |
| Route | DARKE1G NARAN L626 HW W37 PUMOT PUMOT7D |
| Aircraft | A359/H-SDE2E3GHIJ3J4J5LM1ORWXY/LB1D1 |
Departure
| Time | 2026-04-28 10:31 |
|---|---|
| Airport | Tribhuvan International Airport (VNKT) |
Arrival
| Time | 2026-04-28 11:44 |
|---|---|
| Airport | Indira Gandhi International Airport (VIDP) |
| Time | Latitude | Longitude | Altitude | Speed | Heading |
|---|---|---|---|---|---|
| 2026-04-28 10:16 | 27.69818 | 85.35769 | 4373 ft | 0 kts | 292° |
| 2026-04-28 10:24 | 27.69817 | 85.35773 | 4353 ft | 3 kts | 296° |
| 2026-04-28 10:24 | 27.69806 | 85.35792 | 4353 ft | 3 kts | 309° |
| 2026-04-28 10:24 | 27.69793 | 85.35808 | 4353 ft | 3 kts | 309° |
| 2026-04-28 10:25 | 27.69779 | 85.35825 | 4362 ft | 3 kts | 327° |
| 2026-04-28 10:25 | 27.69760 | 85.35835 | 4357 ft | 3 kts | 349° |
| 2026-04-28 10:25 | 27.69746 | 85.35837 | 4352 ft | 0 kts | 5° |
| 2026-04-28 10:27 | 27.69785 | 85.35851 | 4353 ft | 16 kts | 20° |
| 2026-04-28 10:28 | 27.69915 | 85.35911 | 4359 ft | 20 kts | 23° |
| 2026-04-28 10:28 | 27.70043 | 85.35969 | 4372 ft | 19 kts | 22° |
| 2026-04-28 10:28 | 27.70162 | 85.36023 | 4381 ft | 18 kts | 21° |
| 2026-04-28 10:29 | 27.70382 | 85.36121 | 4390 ft | 16 kts | 22° |
| 2026-04-28 10:29 | 27.70481 | 85.36166 | 4394 ft | 15 kts | 22° |
| 2026-04-28 10:29 | 27.70566 | 85.36220 | 4398 ft | 13 kts | 48° |
| 2026-04-28 10:29 | 27.70573 | 85.36300 | 4400 ft | 9 kts | 133° |
| 2026-04-28 10:30 | 27.70524 | 85.36300 | 4399 ft | 8 kts | 198° |
| 2026-04-28 10:30 | 27.70376 | 85.36235 | 4391 ft | 55 kts | 197° |
| 2026-04-28 10:30 | 27.69789 | 85.35969 | 4358 ft | 124 kts | 201° |
| 2026-04-28 10:30 | 27.68821 | 85.35529 | 4579 ft | 160 kts | 203° |
| 2026-04-28 10:31 | 27.67840 | 85.34963 | 5202 ft | 160 kts | 223° |
| 2026-04-28 10:31 | 27.67307 | 85.33867 | 5727 ft | 171 kts | 259° |
| 2026-04-28 10:31 | 27.67236 | 85.32443 | 6182 ft | 188 kts | 271° |
| 2026-04-28 10:31 | 27.67278 | 85.30958 | 6609 ft | 192 kts | 271° |
| 2026-04-28 10:32 | 27.67315 | 85.29454 | 7016 ft | 196 kts | 271° |
| 2026-04-28 10:32 | 27.67372 | 85.27881 | 7431 ft | 200 kts | 276° |
| 2026-04-28 10:32 | 27.67738 | 85.26372 | 7784 ft | 208 kts | 292° |
| 2026-04-28 10:32 | 27.68367 | 85.24829 | 7979 ft | 225 kts | 296° |
| 2026-04-28 10:33 | 27.69085 | 85.23184 | 8154 ft | 242 kts | 296° |
| 2026-04-28 10:33 | 27.69856 | 85.21405 | 8300 ft | 263 kts | 296° |
| 2026-04-28 10:33 | 27.70679 | 85.19480 | 8573 ft | 280 kts | 296° |
| 2026-04-28 10:33 | 27.71531 | 85.17475 | 9073 ft | 286 kts | 296° |
| 2026-04-28 10:34 | 27.72395 | 85.15431 | 9681 ft | 290 kts | 296° |
| 2026-04-28 10:34 | 27.73251 | 85.13361 | 10209 ft | 293 kts | 294° |
| 2026-04-28 10:34 | 27.73768 | 85.11125 | 10691 ft | 298 kts | 275° |
| 2026-04-28 10:34 | 27.73516 | 85.08811 | 11264 ft | 301 kts | 252° |
| 2026-04-28 10:35 | 27.72605 | 85.06677 | 11825 ft | 305 kts | 242° |
| 2026-04-28 10:35 | 27.71512 | 85.04581 | 12094 ft | 317 kts | 240° |
| 2026-04-28 10:35 | 27.70373 | 85.02421 | 12289 ft | 330 kts | 240° |
| 2026-04-28 10:35 | 27.69186 | 85.00143 | 12472 ft | 340 kts | 241° |
| 2026-04-28 10:36 | 27.68178 | 84.97695 | 12669 ft | 348 kts | 253° |
| 2026-04-28 10:36 | 27.67766 | 84.95112 | 13179 ft | 346 kts | 268° |
| 2026-04-28 10:36 | 27.67729 | 84.92350 | 13715 ft | 346 kts | 271° |
| 2026-04-28 10:36 | 27.67755 | 84.89632 | 14110 ft | 348 kts | 271° |
| 2026-04-28 10:37 | 27.67834 | 84.86895 | 14494 ft | 350 kts | 276° |
| 2026-04-28 10:37 | 27.68112 | 84.84260 | 14861 ft | 353 kts | 278° |
| 2026-04-28 10:37 | 27.68480 | 84.81421 | 15257 ft | 355 kts | 279° |
| 2026-04-28 10:37 | 27.68880 | 84.78666 | 15658 ft | 357 kts | 280° |
| 2026-04-28 10:38 | 27.69300 | 84.75893 | 16050 ft | 360 kts | 280° |
| 2026-04-28 10:38 | 27.69731 | 84.73103 | 16420 ft | 362 kts | 280° |
| 2026-04-28 10:38 | 27.70169 | 84.70302 | 16772 ft | 364 kts | 280° |
| 2026-04-28 10:38 | 27.70604 | 84.67483 | 17096 ft | 366 kts | 280° |
| 2026-04-28 10:39 | 27.71041 | 84.64638 | 17484 ft | 369 kts | 280° |
| 2026-04-28 10:39 | 27.71476 | 84.61786 | 17877 ft | 370 kts | 280° |
| 2026-04-28 10:39 | 27.71910 | 84.58912 | 18216 ft | 373 kts | 280° |
| 2026-04-28 10:39 | 27.72344 | 84.56020 | 18556 ft | 374 kts | 280° |
| 2026-04-28 10:40 | 27.72780 | 84.53118 | 18888 ft | 376 kts | 280° |
| 2026-04-28 10:40 | 27.73218 | 84.50201 | 19218 ft | 378 kts | 280° |
| 2026-04-28 10:40 | 27.73656 | 84.47273 | 19550 ft | 379 kts | 280° |
| 2026-04-28 10:40 | 27.74097 | 84.44328 | 19881 ft | 381 kts | 280° |
| 2026-04-28 10:41 | 27.74538 | 84.41372 | 20220 ft | 383 kts | 280° |
| 2026-04-28 10:41 | 27.74981 | 84.38401 | 20546 ft | 385 kts | 280° |
| 2026-04-28 10:41 | 27.75427 | 84.35415 | 20888 ft | 386 kts | 280° |
| 2026-04-28 10:41 | 27.75873 | 84.32415 | 21191 ft | 389 kts | 280° |
| 2026-04-28 10:42 | 27.76322 | 84.29401 | 21541 ft | 390 kts | 280° |
| 2026-04-28 10:42 | 27.76772 | 84.26373 | 21825 ft | 393 kts | 280° |
| 2026-04-28 10:42 | 27.77226 | 84.23314 | 22124 ft | 395 kts | 280° |
| 2026-04-28 10:42 | 27.77680 | 84.20252 | 22487 ft | 395 kts | 280° |
| 2026-04-28 10:43 | 27.78129 | 84.17217 | 22805 ft | 398 kts | 280° |
| 2026-04-28 10:43 | 27.78583 | 84.14129 | 23084 ft | 401 kts | 280° |
| 2026-04-28 10:43 | 27.79047 | 84.10974 | 23366 ft | 402 kts | 280° |
| 2026-04-28 10:43 | 27.79498 | 84.07896 | 23654 ft | 403 kts | 280° |
| 2026-04-28 10:44 | 27.79954 | 84.04768 | 23923 ft | 404 kts | 280° |
| 2026-04-28 10:44 | 27.80413 | 84.01628 | 24181 ft | 406 kts | 280° |
| 2026-04-28 10:44 | 27.80875 | 83.98477 | 24433 ft | 407 kts | 280° |
| 2026-04-28 10:44 | 27.81346 | 83.95276 | 24708 ft | 408 kts | 280° |
| 2026-04-28 10:45 | 27.81803 | 83.92150 | 24988 ft | 409 kts | 280° |
| 2026-04-28 10:45 | 27.82264 | 83.88979 | 25239 ft | 410 kts | 280° |
| 2026-04-28 10:45 | 27.82727 | 83.85793 | 25504 ft | 412 kts | 280° |
| 2026-04-28 10:45 | 27.83190 | 83.82595 | 25775 ft | 413 kts | 280° |
| 2026-04-28 10:46 | 27.83655 | 83.79387 | 26052 ft | 415 kts | 280° |
| 2026-04-28 10:46 | 27.84120 | 83.76164 | 26318 ft | 416 kts | 280° |
| 2026-04-28 10:46 | 27.84588 | 83.72931 | 26604 ft | 417 kts | 280° |
| 2026-04-28 10:46 | 27.85055 | 83.69695 | 26914 ft | 419 kts | 280° |
| 2026-04-28 10:47 | 27.85523 | 83.66440 | 27219 ft | 420 kts | 280° |
| 2026-04-28 10:47 | 27.85991 | 83.63179 | 27526 ft | 421 kts | 280° |
| 2026-04-28 10:47 | 27.86450 | 83.59978 | 27857 ft | 422 kts | 280° |
| 2026-04-28 10:47 | 27.86923 | 83.56682 | 28148 ft | 425 kts | 279° |
| 2026-04-28 10:48 | 27.87397 | 83.53368 | 28661 ft | 428 kts | 279° |
| 2026-04-28 10:48 | 27.87871 | 83.50035 | 29255 ft | 430 kts | 279° |
| 2026-04-28 10:48 | 27.88342 | 83.46723 | 29777 ft | 432 kts | 279° |
| 2026-04-28 10:48 | 27.88814 | 83.43377 | 30224 ft | 435 kts | 279° |
| 2026-04-28 10:49 | 27.89293 | 83.39995 | 30666 ft | 438 kts | 279° |
| 2026-04-28 10:49 | 27.89777 | 83.36586 | 31102 ft | 440 kts | 279° |
| 2026-04-28 10:49 | 27.90263 | 83.33161 | 31551 ft | 443 kts | 279° |
| 2026-04-28 10:49 | 27.90751 | 83.29715 | 32005 ft | 445 kts | 279° |
| 2026-04-28 10:50 | 27.91238 | 83.26255 | 32428 ft | 447 kts | 279° |
| 2026-04-28 10:50 | 27.91560 | 83.23960 | 32712 ft | 448 kts | 279° |
| 2026-04-28 10:50 | 27.92216 | 83.19286 | 33246 ft | 451 kts | 279° |
| 2026-04-28 10:50 | 27.92707 | 83.15776 | 33632 ft | 453 kts | 279° |
| 2026-04-28 10:51 | 27.93200 | 83.12251 | 33976 ft | 455 kts | 279° |
| 2026-04-28 10:51 | 27.93694 | 83.08699 | 34281 ft | 457 kts | 279° |
| 2026-04-28 10:51 | 27.94189 | 83.05148 | 34772 ft | 455 kts | 279° |
| 2026-04-28 10:51 | 27.94677 | 83.01633 | 35322 ft | 451 kts | 279° |
| 2026-04-28 10:52 | 27.94996 | 82.99326 | 35685 ft | 448 kts | 279° |
| 2026-04-28 10:52 | 27.95619 | 82.94830 | 36223 ft | 447 kts | 279° |
| 2026-04-28 10:52 | 27.96094 | 82.91385 | 36601 ft | 446 kts | 279° |
| 2026-04-28 10:52 | 27.96570 | 82.87923 | 37022 ft | 445 kts | 279° |
| 2026-04-28 10:53 | 27.97046 | 82.84472 | 37436 ft | 443 kts | 279° |
| 2026-04-28 10:53 | 27.97521 | 82.81029 | 37807 ft | 443 kts | 279° |
| 2026-04-28 10:53 | 27.97992 | 82.77591 | 38175 ft | 442 kts | 279° |
| 2026-04-28 10:53 | 27.98460 | 82.74162 | 38539 ft | 440 kts | 279° |
| 2026-04-28 10:54 | 27.98923 | 82.70769 | 38840 ft | 439 kts | 279° |
| 2026-04-28 10:54 | 27.99390 | 82.67343 | 39091 ft | 441 kts | 279° |
| 2026-04-28 10:54 | 27.99855 | 82.63917 | 39322 ft | 440 kts | 279° |
| 2026-04-28 10:54 | 28.00319 | 82.60497 | 39591 ft | 440 kts | 279° |
| 2026-04-28 10:55 | 28.00782 | 82.57078 | 39662 ft | 441 kts | 279° |
| 2026-04-28 10:55 | 28.01714 | 82.50200 | 39659 ft | 443 kts | 279° |
| 2026-04-28 10:56 | 28.02642 | 82.43307 | 39662 ft | 443 kts | 279° |
| 2026-04-28 10:56 | 28.03418 | 82.37522 | 39661 ft | 446 kts | 279° |
| 2026-04-28 10:57 | 28.04354 | 82.30533 | 39655 ft | 458 kts | 279° |
| 2026-04-28 10:57 | 28.05313 | 82.23330 | 39647 ft | 466 kts | 279° |
| 2026-04-28 10:58 | 28.06274 | 82.16083 | 39646 ft | 465 kts | 279° |
| 2026-04-28 10:58 | 28.07229 | 82.08848 | 39640 ft | 464 kts | 279° |
| 2026-04-28 10:59 | 28.08179 | 82.01625 | 39629 ft | 464 kts | 279° |
| 2026-04-28 10:59 | 28.09125 | 81.94398 | 39627 ft | 463 kts | 278° |
| 2026-04-28 11:00 | 28.10067 | 81.87180 | 39621 ft | 463 kts | 278° |
| 2026-04-28 11:00 | 28.11003 | 81.79966 | 39620 ft | 463 kts | 278° |
| 2026-04-28 11:01 | 28.11936 | 81.72753 | 39617 ft | 463 kts | 278° |
| 2026-04-28 11:01 | 28.12865 | 81.65544 | 39616 ft | 462 kts | 278° |
| 2026-04-28 11:02 | 28.13789 | 81.58336 | 39611 ft | 462 kts | 278° |
| 2026-04-28 11:02 | 28.14708 | 81.51135 | 39610 ft | 462 kts | 278° |
| 2026-04-28 11:03 | 28.15625 | 81.43925 | 39605 ft | 462 kts | 278° |
| 2026-04-28 11:03 | 28.16536 | 81.36724 | 39607 ft | 462 kts | 278° |
| 2026-04-28 11:04 | 28.17444 | 81.29520 | 39605 ft | 462 kts | 278° |
| 2026-04-28 11:04 | 28.18347 | 81.22325 | 39607 ft | 462 kts | 278° |
| 2026-04-28 11:05 | 28.19247 | 81.15122 | 39607 ft | 462 kts | 278° |
| 2026-04-28 11:05 | 28.20144 | 81.07915 | 39611 ft | 461 kts | 278° |
| 2026-04-28 11:06 | 28.21036 | 81.00713 | 39610 ft | 461 kts | 278° |
| 2026-04-28 11:06 | 28.21925 | 80.93505 | 39612 ft | 461 kts | 278° |
| 2026-04-28 11:07 | 28.22810 | 80.86299 | 39614 ft | 461 kts | 278° |
| 2026-04-28 11:07 | 28.23691 | 80.79090 | 39614 ft | 461 kts | 278° |
| 2026-04-28 11:08 | 28.24568 | 80.71881 | 39614 ft | 461 kts | 278° |
| 2026-04-28 11:08 | 28.25441 | 80.64673 | 39619 ft | 461 kts | 278° |
| 2026-04-28 11:09 | 28.26311 | 80.57458 | 39617 ft | 461 kts | 278° |
| 2026-04-28 11:09 | 28.27177 | 80.50245 | 39619 ft | 461 kts | 278° |
| 2026-04-28 11:10 | 28.28039 | 80.43032 | 39618 ft | 461 kts | 278° |
| 2026-04-28 11:10 | 28.28898 | 80.35812 | 39622 ft | 462 kts | 278° |
| 2026-04-28 11:11 | 28.29753 | 80.28595 | 39618 ft | 461 kts | 278° |
| 2026-04-28 11:11 | 28.30603 | 80.21383 | 39623 ft | 461 kts | 278° |
| 2026-04-28 11:12 | 28.31451 | 80.14161 | 39623 ft | 461 kts | 277° |
| 2026-04-28 11:12 | 28.32288 | 80.06988 | 39622 ft | 461 kts | 277° |
| 2026-04-28 11:13 | 28.33127 | 79.99771 | 39624 ft | 461 kts | 277° |
| 2026-04-28 11:13 | 28.33962 | 79.92557 | 39629 ft | 461 kts | 277° |
| 2026-04-28 11:14 | 28.34794 | 79.85336 | 39626 ft | 461 kts | 277° |
| 2026-04-28 11:14 | 28.35621 | 79.78123 | 39635 ft | 461 kts | 277° |
| 2026-04-28 11:15 | 28.36443 | 79.70910 | 39629 ft | 461 kts | 277° |
| 2026-04-28 11:15 | 28.37261 | 79.63703 | 39528 ft | 457 kts | 277° |
| 2026-04-28 11:15 | 28.37661 | 79.60169 | 38901 ft | 458 kts | 277° |
| 2026-04-28 11:16 | 28.38067 | 79.56571 | 37941 ft | 458 kts | 277° |
| 2026-04-28 11:16 | 28.38472 | 79.52986 | 36484 ft | 459 kts | 277° |
| 2026-04-28 11:16 | 28.38878 | 79.49370 | 35791 ft | 461 kts | 277° |
| 2026-04-28 11:16 | 28.39282 | 79.45761 | 35191 ft | 459 kts | 277° |
| 2026-04-28 11:17 | 28.39684 | 79.42161 | 34525 ft | 460 kts | 277° |
| 2026-04-28 11:17 | 28.40086 | 79.38557 | 33808 ft | 462 kts | 277° |
| 2026-04-28 11:17 | 28.40491 | 79.34919 | 33020 ft | 464 kts | 277° |
| 2026-04-28 11:17 | 28.40892 | 79.31306 | 32499 ft | 459 kts | 276° |
| 2026-04-28 11:18 | 28.41288 | 79.27726 | 31978 ft | 455 kts | 276° |
| 2026-04-28 11:18 | 28.41681 | 79.24167 | 31439 ft | 452 kts | 276° |
| 2026-04-28 11:18 | 28.42068 | 79.20653 | 30913 ft | 449 kts | 276° |
| 2026-04-28 11:18 | 28.42449 | 79.17190 | 30385 ft | 446 kts | 276° |
| 2026-04-28 11:19 | 28.42826 | 79.13752 | 29869 ft | 443 kts | 276° |
| 2026-04-28 11:19 | 28.43196 | 79.10364 | 29311 ft | 441 kts | 276° |
| 2026-04-28 11:19 | 28.43573 | 79.06904 | 28772 ft | 436 kts | 276° |
| 2026-04-28 11:19 | 28.43943 | 79.03505 | 28259 ft | 432 kts | 276° |
| 2026-04-28 11:20 | 28.44309 | 79.00131 | 27757 ft | 427 kts | 276° |
| 2026-04-28 11:20 | 28.44670 | 78.96797 | 27245 ft | 423 kts | 276° |
| 2026-04-28 11:20 | 28.45027 | 78.93493 | 26746 ft | 420 kts | 276° |
| 2026-04-28 11:20 | 28.45381 | 78.90214 | 26236 ft | 416 kts | 276° |
| 2026-04-28 11:21 | 28.45730 | 78.86968 | 25738 ft | 413 kts | 276° |
| 2026-04-28 11:21 | 28.46076 | 78.83742 | 25232 ft | 410 kts | 276° |
| 2026-04-28 11:21 | 28.46419 | 78.80539 | 24742 ft | 407 kts | 276° |
| 2026-04-28 11:21 | 28.46759 | 78.77356 | 24286 ft | 403 kts | 276° |
| 2026-04-28 11:22 | 28.47035 | 78.74212 | 23879 ft | 397 kts | 274° |
| 2026-04-28 11:22 | 28.47266 | 78.71095 | 23396 ft | 395 kts | 274° |
| 2026-04-28 11:22 | 28.47496 | 78.67993 | 22847 ft | 393 kts | 275° |
| 2026-04-28 11:22 | 28.47729 | 78.64918 | 22308 ft | 389 kts | 275° |
| 2026-04-28 11:23 | 28.47963 | 78.61878 | 21824 ft | 384 kts | 275° |
| 2026-04-28 11:23 | 28.48195 | 78.58873 | 21335 ft | 380 kts | 275° |
| 2026-04-28 11:23 | 28.48427 | 78.55889 | 20837 ft | 376 kts | 275° |
| 2026-04-28 11:23 | 28.48655 | 78.52943 | 20342 ft | 373 kts | 275° |
| 2026-04-28 11:24 | 28.48876 | 78.50092 | 19858 ft | 369 kts | 275° |
| 2026-04-28 11:24 | 28.49101 | 78.47176 | 19370 ft | 365 kts | 275° |
| 2026-04-28 11:24 | 28.49322 | 78.44311 | 18885 ft | 362 kts | 275° |
| 2026-04-28 11:24 | 28.49540 | 78.41471 | 18406 ft | 359 kts | 275° |
| 2026-04-28 11:25 | 28.49756 | 78.38657 | 17932 ft | 356 kts | 275° |
| 2026-04-28 11:25 | 28.49965 | 78.35921 | 17665 ft | 347 kts | 275° |
| 2026-04-28 11:25 | 28.50176 | 78.33166 | 17412 ft | 353 kts | 275° |
| 2026-04-28 11:25 | 28.50386 | 78.30410 | 17145 ft | 356 kts | 275° |
| 2026-04-28 11:26 | 28.50596 | 78.27655 | 16871 ft | 349 kts | 275° |
| 2026-04-28 11:26 | 28.50802 | 78.24933 | 16471 ft | 342 kts | 275° |
| 2026-04-28 11:26 | 28.51005 | 78.22256 | 16026 ft | 338 kts | 275° |
| 2026-04-28 11:26 | 28.51204 | 78.19615 | 15569 ft | 333 kts | 275° |
| 2026-04-28 11:27 | 28.51398 | 78.17038 | 15124 ft | 329 kts | 275° |
| 2026-04-28 11:27 | 28.51588 | 78.14500 | 14677 ft | 326 kts | 274° |
| 2026-04-28 11:27 | 28.51779 | 78.11946 | 14241 ft | 322 kts | 275° |
| 2026-04-28 11:27 | 28.51963 | 78.09476 | 14098 ft | 309 kts | 274° |
| 2026-04-28 11:28 | 28.52140 | 78.07094 | 13998 ft | 296 kts | 274° |
| 2026-04-28 11:28 | 28.52310 | 78.04817 | 13887 ft | 283 kts | 274° |
| 2026-04-28 11:28 | 28.52472 | 78.02630 | 13768 ft | 272 kts | 274° |
| 2026-04-28 11:28 | 28.52628 | 78.00518 | 13654 ft | 262 kts | 274° |
| 2026-04-28 11:29 | 28.52774 | 77.98498 | 13527 ft | 252 kts | 274° |
| 2026-04-28 11:29 | 28.52779 | 77.96543 | 13358 ft | 244 kts | 266° |
| 2026-04-28 11:29 | 28.52566 | 77.94634 | 13040 ft | 243 kts | 262° |
| 2026-04-28 11:29 | 28.52294 | 77.92750 | 12746 ft | 240 kts | 262° |
| 2026-04-28 11:30 | 28.52024 | 77.90903 | 12461 ft | 238 kts | 262° |
| 2026-04-28 11:30 | 28.51499 | 77.87280 | 11911 ft | 232 kts | 262° |
| 2026-04-28 11:30 | 28.51239 | 77.85473 | 11639 ft | 231 kts | 262° |
| 2026-04-28 11:31 | 28.50982 | 77.83676 | 11367 ft | 230 kts | 262° |
| 2026-04-28 11:31 | 28.50726 | 77.81891 | 11091 ft | 229 kts | 262° |
| 2026-04-28 11:31 | 28.50472 | 77.80118 | 10826 ft | 229 kts | 262° |
| 2026-04-28 11:31 | 28.50220 | 77.78357 | 10553 ft | 228 kts | 262° |
| 2026-04-28 11:32 | 28.49964 | 77.76578 | 10281 ft | 228 kts | 261° |
| 2026-04-28 11:32 | 28.49710 | 77.74800 | 10009 ft | 228 kts | 261° |
| 2026-04-28 11:32 | 28.49455 | 77.73022 | 9729 ft | 227 kts | 261° |
| 2026-04-28 11:32 | 28.49201 | 77.71253 | 9455 ft | 232 kts | 261° |
| 2026-04-28 11:33 | 28.48935 | 77.69397 | 9243 ft | 244 kts | 261° |
| 2026-04-28 11:33 | 28.48658 | 77.67481 | 9089 ft | 246 kts | 261° |
| 2026-04-28 11:33 | 28.48383 | 77.65572 | 8664 ft | 242 kts | 261° |
| 2026-04-28 11:33 | 28.48113 | 77.63695 | 8387 ft | 240 kts | 261° |
| 2026-04-28 11:34 | 28.47849 | 77.61872 | 8272 ft | 230 kts | 261° |
| 2026-04-28 11:34 | 28.47604 | 77.60192 | 8164 ft | 221 kts | 261° |
| 2026-04-28 11:34 | 28.47354 | 77.58460 | 8039 ft | 211 kts | 261° |
| 2026-04-28 11:34 | 28.47120 | 77.56835 | 7871 ft | 206 kts | 261° |
| 2026-04-28 11:35 | 28.46888 | 77.55236 | 7635 ft | 204 kts | 261° |
| 2026-04-28 11:35 | 28.46660 | 77.53661 | 7457 ft | 198 kts | 261° |
| 2026-04-28 11:35 | 28.46570 | 77.52132 | 7350 ft | 194 kts | 273° |
| 2026-04-28 11:35 | 28.46732 | 77.50587 | 7211 ft | 198 kts | 278° |
| 2026-04-28 11:36 | 28.46953 | 77.49042 | 7003 ft | 197 kts | 278° |
| 2026-04-28 11:36 | 28.47171 | 77.47535 | 6761 ft | 196 kts | 278° |
| 2026-04-28 11:36 | 28.47391 | 77.46003 | 6521 ft | 196 kts | 278° |
| 2026-04-28 11:36 | 28.47608 | 77.44474 | 6286 ft | 196 kts | 277° |
| 2026-04-28 11:37 | 28.47822 | 77.42952 | 6054 ft | 194 kts | 278° |
| 2026-04-28 11:37 | 28.47962 | 77.41953 | 5887 ft | 193 kts | 278° |
| 2026-04-28 11:37 | 28.48241 | 77.39940 | 5568 ft | 194 kts | 278° |
| 2026-04-28 11:37 | 28.48378 | 77.38938 | 5405 ft | 194 kts | 278° |
| 2026-04-28 11:38 | 28.48588 | 77.37427 | 5188 ft | 194 kts | 278° |
| 2026-04-28 11:38 | 28.48797 | 77.35930 | 4966 ft | 194 kts | 278° |
| 2026-04-28 11:38 | 28.49007 | 77.34413 | 4717 ft | 195 kts | 278° |
| 2026-04-28 11:38 | 28.49215 | 77.32907 | 4535 ft | 188 kts | 278° |
| 2026-04-28 11:39 | 28.49409 | 77.31502 | 4392 ft | 171 kts | 279° |
| 2026-04-28 11:39 | 28.49585 | 77.30245 | 4217 ft | 158 kts | 279° |
| 2026-04-28 11:39 | 28.49818 | 77.29068 | 4042 ft | 149 kts | 284° |
| 2026-04-28 11:39 | 28.50079 | 77.27939 | 3807 ft | 146 kts | 284° |
| 2026-04-28 11:40 | 28.50326 | 77.26856 | 3579 ft | 137 kts | 284° |
| 2026-04-28 11:40 | 28.50558 | 77.25818 | 3411 ft | 136 kts | 284° |
| 2026-04-28 11:40 | 28.50786 | 77.24779 | 3362 ft | 136 kts | 284° |
| 2026-04-28 11:40 | 28.51012 | 77.23742 | 3203 ft | 135 kts | 284° |
| 2026-04-28 11:41 | 28.51233 | 77.22724 | 3092 ft | 133 kts | 284° |
| 2026-04-28 11:41 | 28.51456 | 77.21706 | 2886 ft | 133 kts | 284° |
| 2026-04-28 11:41 | 28.51679 | 77.20673 | 2459 ft | 141 kts | 284° |
| 2026-04-28 11:41 | 28.51914 | 77.19593 | 2089 ft | 147 kts | 285° |
| 2026-04-28 11:42 | 28.52162 | 77.18464 | 1728 ft | 149 kts | 285° |
| 2026-04-28 11:42 | 28.52401 | 77.17347 | 1417 ft | 150 kts | 285° |
| 2026-04-28 11:42 | 28.52640 | 77.16218 | 1206 ft | 142 kts | 284° |
| 2026-04-28 11:42 | 28.52875 | 77.15130 | 1255 ft | 148 kts | 285° |
| 2026-04-28 11:43 | 28.53125 | 77.14022 | 1241 ft | 161 kts | 287° |
| 2026-04-28 11:43 | 28.53430 | 77.12746 | 1282 ft | 162 kts | 287° |
| 2026-04-28 11:43 | 28.53688 | 77.11600 | 1122 ft | 147 kts | 284° |
| 2026-04-28 11:43 | 28.53866 | 77.10494 | 830 ft | 145 kts | 287° |
| 2026-04-28 11:44 | 28.54076 | 77.09470 | 775 ft | 129 kts | 294° |
| 2026-04-28 11:44 | 28.54298 | 77.08526 | 755 ft | 123 kts | 283° |
| 2026-04-28 11:44 | 28.54500 | 77.07613 | 742 ft | 103 kts | 285° |
| 2026-04-28 11:44 | 28.54715 | 77.07104 | 740 ft | 39 kts | 320° |
| 2026-04-28 11:45 | 28.54819 | 77.06932 | 737 ft | 18 kts | 303° |
| 2026-04-28 11:45 | 28.54874 | 77.06908 | 737 ft | 7 kts | 7° |
| 2026-04-28 11:45 | 28.54924 | 77.06921 | 737 ft | 9 kts | 17° |
| 2026-04-28 11:45 | 28.54993 | 77.06938 | 737 ft | 13 kts | 14° |
| 2026-04-28 11:46 | 28.55146 | 77.06975 | 737 ft | 31 kts | 11° |
| 2026-04-28 11:46 | 28.55291 | 77.07044 | 736 ft | 12 kts | 65° |
| 2026-04-28 11:46 | 28.55269 | 77.07167 | 738 ft | 23 kts | 106° |
| 2026-04-28 11:46 | 28.55229 | 77.07348 | 740 ft | 24 kts | 103° |
| 2026-04-28 11:47 | 28.55185 | 77.07535 | 740 ft | 25 kts | 105° |
| 2026-04-28 11:47 | 28.55153 | 77.07719 | 743 ft | 16 kts | 69° |
| 2026-04-28 11:47 | 28.55215 | 77.07746 | 743 ft | 10 kts | 15° |
| 2026-04-28 11:47 | 28.55290 | 77.07770 | 742 ft | 13 kts | 12° |
| 2026-04-28 11:48 | 28.55389 | 77.07791 | 741 ft | 16 kts | 11° |
| 2026-04-28 11:48 | 28.55504 | 77.07831 | 740 ft | 19 kts | 21° |
| 2026-04-28 11:48 | 28.55638 | 77.07870 | 739 ft | 21 kts | 13° |
| 2026-04-28 11:48 | 28.55789 | 77.07916 | 738 ft | 24 kts | 16° |
| 2026-04-28 11:49 | 28.55955 | 77.07965 | 737 ft | 26 kts | 13° |
| 2026-04-28 11:49 | 28.56133 | 77.08023 | 737 ft | 28 kts | 17° |
| 2026-04-28 11:49 | 28.56319 | 77.08077 | 736 ft | 21 kts | 27° |
| 2026-04-28 11:49 | 28.56348 | 77.08140 | 736 ft | 5 kts | 110° |
| 2026-04-28 11:50 | 28.56326 | 77.08183 | 736 ft | 7 kts | 109° |
| 2026-04-28 11:50 | 28.56306 | 77.08247 | 736 ft | 10 kts | 120° |
| 2026-04-28 11:50 | 28.56245 | 77.08296 | 737 ft | 12 kts | 165° |
| 2026-04-28 11:50 | 28.56199 | 77.08257 | 736 ft | 6 kts | 244° |
| 2026-04-28 11:51 | 28.56189 | 77.08232 | 737 ft | 1 kts | 243° |
| 2026-04-28 11:51 | 28.56186 | 77.08227 | 737 ft | 0 kts | 242° |